LGKF Airport Information

Runway Information
Runway 14 Length 7992 ft width 148 ft
Elevation 32 ft Threshold 0 ft Heading 146
Runway 32 Length 7992 ft Width 148 ft
Elevation 50 ft Threshold 912 ft Heading 326
Airport Frequencies
Type A/G Name RDO Frequency 563.7 MHZ
Type AFIS Name AFIS INFO Frequency 122.25 MHZ
Airport Navaids
Type NDB Name Kefallinia Frequency 318 KHZ
Type VOR-DME Name Kefallinia Frequency 115500 KHZ
Airport Weather Information & NOTAM
ADDS - METARS form results

(1341 UTC 07 May 2021)
Data provider http://aviationweather.gov/metar/data/
 
METAR text: LGKF 071250Z 25005KT 9999 FEW070 21/18 Q1014
Conditions at: LGKF (KEFALLINIA , GR) observed 1250 UTC 07 May 2021
Temperature: 21.0°C (70°F)
Dewpoint: 18.0°C (64°F) [RH = 83%]
Pressure (altimeter): 29.94 inches Hg (1014.0 mb)
Winds: from the WSW (250 degrees) at 6 MPH (5 knots; 2.6 m/s)
Visibility: 6 or more miles (10+ km)
Ceiling: at least 12,000 feet AGL
Clouds: few clouds at 7000 feet AGL
Weather: no significant weather observed at this time

Forecast for: LGKF (KEFALLINIA , GR)
Text: TAF LGKF 071100Z 0712/0721 VRB05KT 9999 FEW020
Forecast period: 1200 to 2100 UTC 07 May 2021
Forecast type: FROM: standard forecast or significant change
Winds: variable direction winds at 6 MPH (5 knots; 2.6 m/s)
Visibility: 6 or more miles (10+ km)
Ceiling: at least 12,000 feet AGL
Clouds: few clouds at 2000 feet AGL
Weather: no significant weather forecast for this period